sensor_id;sensor_type;location;lat;lon;timestamp;pressure;altitude;pressure_sealevel;temperature;humidity
6094;BME280;19964;42.060;24.700;2024-03-08T00:02:04;97459.84;;;5.28;100.00
6094;BME280;19964;42.060;24.700;2024-03-08T00:04:32;97444.78;;;5.12;100.00
6094;BME280;19964;42.060;24.700;2024-03-08T00:06:59;97449.50;;;5.08;100.00
6094;BME280;19964;42.060;24.700;2024-03-08T00:09:27;97445.13;;;5.02;100.00
6094;BME280;19964;42.060;24.700;2024-03-08T00:11:54;97448.34;;;5.17;100.00
6094;BME280;19964;42.060;24.700;2024-03-08T00:14:20;97443.97;;;5.11;100.00
6094;BME280;19964;42.060;24.700;2024-03-08T00:16:47;97451.88;;;5.10;100.00
6094;BME280;19964;42.060;24.700;2024-03-08T00:19:14;97444.31;;;4.95;100.00
6094;BME280;19964;42.060;24.700;2024-03-08T00:21:43;97446.88;;;5.02;100.00
6094;BME280;19964;42.060;24.700;2024-03-08T00:24:10;97436.66;;;5.08;100.00
6094;BME280;19964;42.060;24.700;2024-03-08T00:26:37;97428.91;;;4.95;100.00
6094;BME280;19964;42.060;24.700;2024-03-08T00:29:04;97445.56;;;5.19;100.00
6094;BME280;19964;42.060;24.700;2024-03-08T00:31:33;97430.75;;;5.14;100.00
6094;BME280;19964;42.060;24.700;2024-03-08T00:34:00;97439.31;;;5.34;100.00
6094;BME280;19964;42.060;24.700;2024-03-08T00:36:27;97442.25;;;5.25;100.00
6094;BME280;19964;42.060;24.700;2024-03-08T00:38:57;97439.75;;;5.38;100.00
6094;BME280;19964;42.060;24.700;2024-03-08T00:41:26;97427.41;;;5.14;100.00
6094;BME280;19964;42.060;24.700;2024-03-08T00:43:53;97433.75;;;5.24;100.00
6094;BME280;19964;42.060;24.700;2024-03-08T00:46:20;97444.97;;;5.17;100.00
6094;BME280;19964;42.060;24.700;2024-03-08T00:48:47;97439.06;;;5.16;100.00
6094;BME280;19964;42.060;24.700;2024-03-08T00:51:14;97431.59;;;5.28;100.00
6094;BME280;19964;42.060;24.700;2024-03-08T00:53:41;97417.53;;;5.17;100.00
6094;BME280;19964;42.060;24.700;2024-03-08T00:56:10;97427.81;;;5.17;100.00
6094;BME280;19964;42.060;24.700;2024-03-08T00:58:37;97431.69;;;5.00;100.00
6094;BME280;19964;42.060;24.700;2024-03-08T01:01:04;97415.09;;;4.96;100.00
6094;BME280;19964;42.060;24.700;2024-03-08T01:03:31;97429.94;;;5.07;100.00
6094;BME280;19964;42.060;24.700;2024-03-08T01:05:59;97423.19;;;4.93;100.00
6094;BME280;19964;42.060;24.700;2024-03-08T01:08:27;97436.38;;;4.90;100.00
6094;BME280;19964;42.060;24.700;2024-03-08T01:10:54;97424.72;;;4.88;100.00
6094;BME280;19964;42.060;24.700;2024-03-08T01:13:22;97426.31;;;4.89;100.00
6094;BME280;19964;42.060;24.700;2024-03-08T01:15:49;97416.69;;;4.97;100.00
6094;BME280;19964;42.060;24.700;2024-03-08T01:18:16;97401.81;;;4.86;100.00
6094;BME280;19964;42.060;24.700;2024-03-08T01:20:45;97426.09;;;4.90;100.00
6094;BME280;19964;42.060;24.700;2024-03-08T01:23:15;97421.16;;;4.89;100.00
6094;BME280;19964;42.060;24.700;2024-03-08T01:25:42;97420.06;;;5.04;100.00
6094;BME280;19964;42.060;24.700;2024-03-08T01:28:09;97427.31;;;4.94;100.00
6094;BME280;19964;42.060;24.700;2024-03-08T01:30:38;97424.75;;;4.94;100.00
6094;BME280;19964;42.060;24.700;2024-03-08T01:33:05;97432.09;;;4.97;100.00
6094;BME280;19964;42.060;24.700;2024-03-08T01:35:32;97430.03;;;4.86;100.00
6094;BME280;19964;42.060;24.700;2024-03-08T01:37:59;97432.00;;;4.84;100.00
6094;BME280;19964;42.060;24.700;2024-03-08T01:40:26;97437.53;;;4.88;100.00
6094;BME280;19964;42.060;24.700;2024-03-08T01:42:54;97433.97;;;4.82;100.00
6094;BME280;19964;42.060;24.700;2024-03-08T01:45:22;97430.84;;;4.87;100.00
6094;BME280;19964;42.060;24.700;2024-03-08T01:47:51;97340.53;;;4.23;100.00
6094;BME280;19964;42.060;24.700;2024-03-08T01:50:18;97416.50;;;4.65;100.00
6094;BME280;19964;42.060;24.700;2024-03-08T01:52:45;97432.91;;;4.70;100.00
6094;BME280;19964;42.060;24.700;2024-03-08T01:55:12;97431.56;;;4.74;100.00
6094;BME280;19964;42.060;24.700;2024-03-08T01:57:41;97427.75;;;4.64;100.00
6094;BME280;19964;42.060;24.700;2024-03-08T02:00:09;97434.88;;;4.68;100.00
6094;BME280;19964;42.060;24.700;2024-03-08T02:02:37;97417.69;;;4.62;100.00
6094;BME280;19964;42.060;24.700;2024-03-08T02:05:10;97427.63;;;4.78;100.00
6094;BME280;19964;42.060;24.700;2024-03-08T02:07:37;97429.72;;;4.68;100.00
6094;BME280;19964;42.060;24.700;2024-03-08T02:10:05;97429.53;;;4.63;100.00
6094;BME280;19964;42.060;24.700;2024-03-08T02:12:32;97423.38;;;4.58;100.00
6094;BME280;19964;42.060;24.700;2024-03-08T02:14:59;97431.13;;;4.64;100.00
6094;BME280;19964;42.060;24.700;2024-03-08T02:17:26;97430.25;;;4.50;100.00
6094;BME280;19964;42.060;24.700;2024-03-08T02:19:53;97424.94;;;4.59;100.00
6094;BME280;19964;42.060;24.700;2024-03-08T02:22:22;97422.28;;;4.73;100.00
6094;BME280;19964;42.060;24.700;2024-03-08T02:24:49;97407.28;;;4.77;100.00
6094;BME280;19964;42.060;24.700;2024-03-08T02:27:23;97417.50;;;4.70;100.00
6094;BME280;19964;42.060;24.700;2024-03-08T02:29:50;97425.25;;;4.77;100.00
6094;BME280;19964;42.060;24.700;2024-03-08T02:32:21;97406.09;;;4.73;100.00
6094;BME280;19964;42.060;24.700;2024-03-08T02:34:48;97412.63;;;4.75;100.00
6094;BME280;19964;42.060;24.700;2024-03-08T02:37:15;97420.28;;;4.69;100.00
6094;BME280;19964;42.060;24.700;2024-03-08T02:39:44;97423.84;;;4.74;100.00
6094;BME280;19964;42.060;24.700;2024-03-08T02:42:10;97403.94;;;4.76;100.00
6094;BME280;19964;42.060;24.700;2024-03-08T02:44:42;97425.22;;;4.70;100.00
6094;BME280;19964;42.060;24.700;2024-03-08T02:47:10;97430.50;;;4.62;100.00
6094;BME280;19964;42.060;24.700;2024-03-08T02:49:37;97425.38;;;4.62;100.00
6094;BME280;19964;42.060;24.700;2024-03-08T02:52:04;97428.97;;;4.68;100.00
6094;BME280;19964;42.060;24.700;2024-03-08T02:54:32;97429.16;;;4.66;100.00
6094;BME280;19964;42.060;24.700;2024-03-08T02:57:01;97429.38;;;4.71;100.00
6094;BME280;19964;42.060;24.700;2024-03-08T02:59:29;97422.66;;;4.70;100.00
6094;BME280;19964;42.060;24.700;2024-03-08T03:01:56;97413.38;;;4.69;100.00
6094;BME280;19964;42.060;24.700;2024-03-08T03:04:23;97422.22;;;4.67;100.00
6094;BME280;19964;42.060;24.700;2024-03-08T03:06:50;97417.94;;;4.74;100.00
6094;BME280;19964;42.060;24.700;2024-03-08T03:09:17;97418.75;;;4.81;100.00
6094;BME280;19964;42.060;24.700;2024-03-08T03:11:49;97428.06;;;4.88;100.00
6094;BME280;19964;42.060;24.700;2024-03-08T03:14:17;97421.72;;;4.84;100.00
6094;BME280;19964;42.060;24.700;2024-03-08T03:16:44;97403.53;;;4.73;100.00
6094;BME280;19964;42.060;24.700;2024-03-08T03:19:11;97428.00;;;4.75;100.00
6094;BME280;19964;42.060;24.700;2024-03-08T03:21:38;97430.22;;;4.85;100.00
6094;BME280;19964;42.060;24.700;2024-03-08T03:24:06;97432.84;;;4.91;100.00
6094;BME280;19964;42.060;24.700;2024-03-08T03:26:35;97430.22;;;4.85;100.00
6094;BME280;19964;42.060;24.700;2024-03-08T03:29:04;97431.56;;;4.74;100.00
6094;BME280;19964;42.060;24.700;2024-03-08T03:31:35;97437.31;;;4.83;100.00
6094;BME280;19964;42.060;24.700;2024-03-08T03:34:03;97436.56;;;4.89;100.00
6094;BME280;19964;42.060;24.700;2024-03-08T03:36:30;97440.19;;;5.01;100.00
6094;BME280;19964;42.060;24.700;2024-03-08T03:38:57;97434.81;;;4.96;100.00
6094;BME280;19964;42.060;24.700;2024-03-08T03:41:35;97442.75;;;5.01;100.00
6094;BME280;19964;42.060;24.700;2024-03-08T03:44:02;97430.44;;;4.90;100.00
6094;BME280;19964;42.060;24.700;2024-03-08T03:46:29;97448.84;;;5.00;100.00
6094;BME280;19964;42.060;24.700;2024-03-08T03:48:58;97443.13;;;4.98;100.00
6094;BME280;19964;42.060;24.700;2024-03-08T03:51:25;97442.66;;;4.88;100.00
6094;BME280;19964;42.060;24.700;2024-03-08T03:53:52;97429.22;;;4.79;100.00
6094;BME280;19964;42.060;24.700;2024-03-08T03:56:19;97449.75;;;4.86;100.00
6094;BME280;19964;42.060;24.700;2024-03-08T03:58:51;97456.44;;;4.80;100.00
6094;BME280;19964;42.060;24.700;2024-03-08T04:01:18;97438.03;;;4.64;100.00
6094;BME280;19964;42.060;24.700;2024-03-08T04:03:45;97451.47;;;4.72;100.00
6094;BME280;19964;42.060;24.700;2024-03-08T04:06:14;97451.47;;;4.72;100.00
6094;BME280;19964;42.060;24.700;2024-03-08T04:08:41;97444.41;;;4.81;100.00
6094;BME280;19964;42.060;24.700;2024-03-08T04:11:08;97430.31;;;4.64;100.00
6094;BME280;19964;42.060;24.700;2024-03-08T04:13:35;97453.88;;;4.74;100.00
6094;BME280;19964;42.060;24.700;2024-03-08T04:16:03;97450.66;;;4.65;100.00
6094;BME280;19964;42.060;24.700;2024-03-08T04:18:33;97444.72;;;4.65;100.00
6094;BME280;19964;42.060;24.700;2024-03-08T04:21:04;97455.97;;;4.64;100.00
6094;BME280;19964;42.060;24.700;2024-03-08T04:23:34;97454.38;;;4.63;100.00
6094;BME280;19964;42.060;24.700;2024-03-08T04:26:01;97452.56;;;4.57;100.00
6094;BME280;19964;42.060;24.700;2024-03-08T04:28:29;97451.94;;;4.54;100.00
6094;BME280;19964;42.060;24.700;2024-03-08T04:30:56;97442.69;;;4.53;100.00
6094;BME280;19964;42.060;24.700;2024-03-08T04:33:26;97456.78;;;4.64;100.00
6094;BME280;19964;42.060;24.700;2024-03-08T04:35:53;97449.81;;;4.58;100.00
6094;BME280;19964;42.060;24.700;2024-03-08T04:38:20;97454.75;;;4.60;100.00
6094;BME280;19964;42.060;24.700;2024-03-08T04:40:48;97458.69;;;4.56;100.00
6094;BME280;19964;42.060;24.700;2024-03-08T04:43:16;97448.50;;;4.69;100.00
6094;BME280;19964;42.060;24.700;2024-03-08T04:45:44;97457.09;;;4.54;100.00
6094;BME280;19964;42.060;24.700;2024-03-08T04:48:11;97469.50;;;4.51;100.00
6094;BME280;19964;42.060;24.700;2024-03-08T04:50:38;97388.69;;;4.00;100.00
6094;BME280;19964;42.060;24.700;2024-03-08T04:53:05;97457.84;;;4.48;100.00
6094;BME280;19964;42.060;24.700;2024-03-08T04:55:33;97461.59;;;4.52;100.00
6094;BME280;19964;42.060;24.700;2024-03-08T04:58:02;97465.06;;;4.38;100.00
6094;BME280;19964;42.060;24.700;2024-03-08T05:00:31;97462.19;;;4.48;100.00
6094;BME280;19964;42.060;24.700;2024-03-08T05:02:58;97456.78;;;4.36;100.00
6094;BME280;19964;42.060;24.700;2024-03-08T05:05:25;97457.34;;;4.32;100.00
6094;BME280;19964;42.060;24.700;2024-03-08T05:07:54;97464.41;;;4.30;100.00
6094;BME280;19964;42.060;24.700;2024-03-08T05:10:20;97468.00;;;4.35;100.00
6094;BME280;19964;42.060;24.700;2024-03-08T05:12:47;97473.50;;;4.32;100.00
6094;BME280;19964;42.060;24.700;2024-03-08T05:15:17;97469.47;;;4.23;100.00
6094;BME280;19964;42.060;24.700;2024-03-08T05:17:46;97463.53;;;4.16;100.00
6094;BME280;19964;42.060;24.700;2024-03-08T05:20:13;97469.19;;;4.12;100.00
6094;BME280;19964;42.060;24.700;2024-03-08T05:22:40;97469.84;;;4.20;100.00
6094;BME280;19964;42.060;24.700;2024-03-08T05:25:07;97443.09;;;4.02;100.00
6094;BME280;19964;42.060;24.700;2024-03-08T05:27:35;97487.69;;;4.28;100.00
6094;BME280;19964;42.060;24.700;2024-03-08T05:30:03;97488.91;;;4.32;100.00
6094;BME280;19964;42.060;24.700;2024-03-08T05:32:32;97491.19;;;4.27;100.00
6094;BME280;19964;42.060;24.700;2024-03-08T05:34:59;97491.19;;;4.27;100.00
6094;BME280;19964;42.060;24.700;2024-03-08T05:37:26;97501.03;;;4.24;100.00
6094;BME280;19964;42.060;24.700;2024-03-08T05:39:53;97493.97;;;4.26;100.00
6094;BME280;19964;42.060;24.700;2024-03-08T05:42:20;97501.97;;;4.16;100.00
6094;BME280;19964;42.060;24.700;2024-03-08T05:44:47;97501.78;;;4.18;100.00
6094;BME280;19964;42.060;24.700;2024-03-08T05:47:15;97510.88;;;4.20;100.00
6094;BME280;19964;42.060;24.700;2024-03-08T05:49:45;97506.78;;;4.26;100.00
6094;BME280;19964;42.060;24.700;2024-03-08T05:52:12;97504.81;;;4.28;100.00
6094;BME280;19964;42.060;24.700;2024-03-08T05:54:40;97502.56;;;4.18;100.00
6094;BME280;19964;42.060;24.700;2024-03-08T05:57:07;97504.81;;;4.28;100.00
6094;BME280;19964;42.060;24.700;2024-03-08T05:59:34;97510.34;;;4.25;100.00
6094;BME280;19964;42.060;24.700;2024-03-08T06:02:01;97504.09;;;4.34;100.00
6094;BME280;19964;42.060;24.700;2024-03-08T06:04:29;97508.41;;;4.33;100.00
6094;BME280;19964;42.060;24.700;2024-03-08T06:06:57;97507.47;;;4.34;100.00
6094;BME280;19964;42.060;24.700;2024-03-08T06:09:24;97499.75;;;4.34;100.00
6094;BME280;19964;42.060;24.700;2024-03-08T06:11:51;97516.97;;;4.40;100.00
6094;BME280;19964;42.060;24.700;2024-03-08T06:14:19;97521.31;;;4.40;100.00
6094;BME280;19964;42.060;24.700;2024-03-08T06:16:46;97528.66;;;4.49;100.00
6094;BME280;19964;42.060;24.700;2024-03-08T06:19:15;97523.59;;;4.56;100.00
6094;BME280;19964;42.060;24.700;2024-03-08T06:21:42;97526.34;;;4.54;100.00
6094;BME280;19964;42.060;24.700;2024-03-08T06:24:10;97525.38;;;4.56;100.00
6094;BME280;19964;42.060;24.700;2024-03-08T06:26:38;97529.69;;;4.55;100.00
6094;BME280;19964;42.060;24.700;2024-03-08T06:29:05;97533.19;;;4.47;100.00
6094;BME280;19964;42.060;24.700;2024-03-08T06:31:32;97534.13;;;4.40;100.00
6094;BME280;19964;42.060;24.700;2024-03-08T06:33:59;97535.84;;;4.61;100.00
6094;BME280;19964;42.060;24.700;2024-03-08T06:36:27;97523.59;;;4.56;100.00
6094;BME280;19964;42.060;24.700;2024-03-08T06:38:53;97540.69;;;4.49;100.00
6094;BME280;19964;42.060;24.700;2024-03-08T06:41:23;97540.66;;;4.42;100.00
6094;BME280;19964;42.060;24.700;2024-03-08T06:43:50;97533.63;;;4.51;100.00
6094;BME280;19964;42.060;24.700;2024-03-08T06:46:22;97531.84;;;4.51;100.00
6094;BME280;19964;42.060;24.700;2024-03-08T06:48:49;97534.16;;;4.68;100.00
6094;BME280;19964;42.060;24.700;2024-03-08T06:51:16;97540.25;;;4.67;100.00
6094;BME280;19964;42.060;24.700;2024-03-08T06:53:43;97535.72;;;4.69;100.00
6094;BME280;19964;42.060;24.700;2024-03-08T06:56:11;97544.31;;;4.82;100.00
6094;BME280;19964;42.060;24.700;2024-03-08T06:58:39;97516.88;;;4.55;100.00
6094;BME280;19964;42.060;24.700;2024-03-08T07:01:06;97549.44;;;4.82;100.00
6094;BME280;19964;42.060;24.700;2024-03-08T07:03:39;97550.03;;;4.84;100.00
6094;BME280;19964;42.060;24.700;2024-03-08T07:06:09;97550.66;;;4.86;100.00
6094;BME280;19964;42.060;24.700;2024-03-08T07:08:36;97544.28;;;4.76;100.00
6094;BME280;19964;42.060;24.700;2024-03-08T07:11:03;97558.81;;;4.96;100.00
6094;BME280;19964;42.060;24.700;2024-03-08T07:13:30;97542.75;;;4.88;100.00
6094;BME280;19964;42.060;24.700;2024-03-08T07:15:59;97557.13;;;4.82;100.00
6094;BME280;19964;42.060;24.700;2024-03-08T07:18:26;97563.00;;;4.76;100.00
6094;BME280;19964;42.060;24.700;2024-03-08T07:20:55;97558.69;;;4.77;100.00
6094;BME280;19964;42.060;24.700;2024-03-08T07:23:22;97562.88;;;4.84;100.00
6094;BME280;19964;42.060;24.700;2024-03-08T07:26:03;97558.94;;;4.82;100.00
6094;BME280;19964;42.060;24.700;2024-03-08T07:28:30;97534.47;;;4.58;100.00
6094;BME280;19964;42.060;24.700;2024-03-08T07:30:59;97519.09;;;4.58;100.00
6094;BME280;19964;42.060;24.700;2024-03-08T07:33:42;97550.56;;;4.73;100.00
6094;BME280;19964;42.060;24.700;2024-03-08T07:36:09;97571.44;;;4.91;100.00
6094;BME280;19964;42.060;24.700;2024-03-08T07:38:36;97561.31;;;4.90;100.00
6094;BME280;19964;42.060;24.700;2024-03-08T07:41:04;97572.66;;;5.02;100.00
6094;BME280;19964;42.060;24.700;2024-03-08T07:43:31;97574.88;;;5.05;100.00
6094;BME280;19964;42.060;24.700;2024-03-08T07:45:59;97582.31;;;5.00;100.00
6094;BME280;19964;42.060;24.700;2024-03-08T07:48:26;97575.47;;;5.07;100.00
6094;BME280;19964;42.060;24.700;2024-03-08T07:50:53;97579.22;;;5.04;100.00
6094;BME280;19964;42.060;24.700;2024-03-08T07:53:20;97580.00;;;5.05;100.00
6094;BME280;19964;42.060;24.700;2024-03-08T07:55:50;97579.88;;;5.13;100.00
6094;BME280;19964;42.060;24.700;2024-03-08T07:58:16;97592.38;;;5.22;100.00
6094;BME280;19964;42.060;24.700;2024-03-08T08:00:44;97591.78;;;5.27;100.00
6094;BME280;19964;42.060;24.700;2024-03-08T08:03:12;97591.97;;;5.25;100.00
6094;BME280;19964;42.060;24.700;2024-03-08T08:05:39;97587.34;;;5.49;100.00
6094;BME280;19964;42.060;24.700;2024-03-08T08:08:07;97597.47;;;5.57;100.00
6094;BME280;19964;42.060;24.700;2024-03-08T08:10:36;97591.53;;;5.50;100.00
6094;BME280;19964;42.060;24.700;2024-03-08T08:13:03;97602.13;;;5.74;100.00
6094;BME280;19964;42.060;24.700;2024-03-08T08:15:31;97609.34;;;5.92;100.00
6094;BME280;19964;42.060;24.700;2024-03-08T08:17:59;97609.78;;;5.68;100.00
6094;BME280;19964;42.060;24.700;2024-03-08T08:20:29;97608.47;;;5.78;100.00
6094;BME280;19964;42.060;24.700;2024-03-08T08:22:57;97613.75;;;6.04;100.00
6094;BME280;19964;42.060;24.700;2024-03-08T08:25:24;97621.25;;;6.12;100.00
6094;BME280;19964;42.060;24.700;2024-03-08T08:27:51;97623.63;;;6.07;100.00
6094;BME280;19964;42.060;24.700;2024-03-08T08:30:19;97630.53;;;6.00;100.00
6094;BME280;19964;42.060;24.700;2024-03-08T08:32:46;97621.72;;;5.82;100.00
6094;BME280;19964;42.060;24.700;2024-03-08T08:35:14;97639.28;;;5.78;100.00
6094;BME280;19964;42.060;24.700;2024-03-08T08:37:42;97647.97;;;5.71;100.00
6094;BME280;19964;42.060;24.700;2024-03-08T08:40:10;97646.03;;;5.79;100.00
6094;BME280;19964;42.060;24.700;2024-03-08T08:42:40;97645.47;;;5.84;100.00
6094;BME280;19964;42.060;24.700;2024-03-08T08:45:07;97644.31;;;5.86;100.00
6094;BME280;19964;42.060;24.700;2024-03-08T08:47:35;97648.91;;;5.91;100.00
6094;BME280;19964;42.060;24.700;2024-03-08T08:50:02;97646.13;;;5.99;100.00
6094;BME280;19964;42.060;24.700;2024-03-08T08:52:30;97647.13;;;5.98;100.00
6094;BME280;19964;42.060;24.700;2024-03-08T08:54:58;97625.09;;;5.82;100.00
6094;BME280;19964;42.060;24.700;2024-03-08T08:57:25;97645.97;;;6.07;100.00
6094;BME280;19964;42.060;24.700;2024-03-08T08:59:53;97647.84;;;6.26;100.00
6094;BME280;19964;42.060;24.700;2024-03-08T09:02:20;97653.34;;;6.23;100.00
6094;BME280;19964;42.060;24.700;2024-03-08T09:04:47;97659.03;;;6.05;100.00
6094;BME280;19964;42.060;24.700;2024-03-08T09:07:15;97663.16;;;6.00;100.00
6094;BME280;19964;42.060;24.700;2024-03-08T09:09:44;97661.22;;;6.15;100.00
6094;BME280;19964;42.060;24.700;2024-03-08T09:12:12;97664.19;;;6.12;100.00
6094;BME280;19964;42.060;24.700;2024-03-08T09:14:39;97664.41;;;6.10;100.00
6094;BME280;19964;42.060;24.700;2024-03-08T09:17:06;97648.38;;;6.08;100.00
6094;BME280;19964;42.060;24.700;2024-03-08T09:19:34;97656.69;;;6.10;100.00
6094;BME280;19964;42.060;24.700;2024-03-08T09:22:02;97661.28;;;6.35;100.00
6094;BME280;19964;42.060;24.700;2024-03-08T09:24:29;97666.47;;;6.41;100.00
6094;BME280;19964;42.060;24.700;2024-03-08T09:26:56;97658.16;;;6.39;100.00
6094;BME280;19964;42.060;24.700;2024-03-08T09:29:26;97643.22;;;6.15;100.00
6094;BME280;19964;42.060;24.700;2024-03-08T09:31:53;97670.44;;;6.44;100.00
6094;BME280;19964;42.060;24.700;2024-03-08T09:34:20;97669.38;;;6.25;100.00
6094;BME280;19964;42.060;24.700;2024-03-08T09:36:47;97677.19;;;6.58;100.00
6094;BME280;19964;42.060;24.700;2024-03-08T09:39:14;97683.72;;;6.54;100.00
6094;BME280;19964;42.060;24.700;2024-03-08T09:41:42;97685.25;;;6.35;100.00
6094;BME280;19964;42.060;24.700;2024-03-08T09:44:11;97684.31;;;6.49;100.00
6094;BME280;19964;42.060;24.700;2024-03-08T09:46:40;97686.81;;;6.36;100.00
6094;BME280;19964;42.060;24.700;2024-03-08T09:49:08;97683.25;;;6.30;100.00
6094;BME280;19964;42.060;24.700;2024-03-08T09:51:38;97683.09;;;6.39;100.00
6094;BME280;19964;42.060;24.700;2024-03-08T09:54:07;97635.81;;;5.86;100.00
6094;BME280;19964;42.060;24.700;2024-03-08T09:56:34;97655.66;;;6.05;100.00
6094;BME280;19964;42.060;24.700;2024-03-08T09:59:02;97671.16;;;6.18;100.00
6094;BME280;19964;42.060;24.700;2024-03-08T10:02:12;97670.91;;;6.06;100.00
6094;BME280;19964;42.060;24.700;2024-03-08T10:04:40;97671.31;;;6.16;100.00
6094;BME280;19964;42.060;24.700;2024-03-08T10:07:08;97673.28;;;6.08;100.00
6094;BME280;19964;42.060;24.700;2024-03-08T10:09:36;97650.97;;;6.21;100.00
6094;BME280;19964;42.060;24.700;2024-03-08T10:12:04;97663.69;;;6.43;100.00
6094;BME280;19964;42.060;24.700;2024-03-08T10:14:31;97662.31;;;6.47;100.00
6094;BME280;19964;42.060;24.700;2024-03-08T10:16:58;97664.09;;;6.46;100.00
6094;BME280;19964;42.060;24.700;2024-03-08T10:19:27;97672.66;;;6.53;100.00
6094;BME280;19964;42.060;24.700;2024-03-08T10:21:55;97663.84;;;6.28;100.00
6094;BME280;19964;42.060;24.700;2024-03-08T10:24:24;97678.09;;;6.30;100.00
6094;BME280;19964;42.060;24.700;2024-03-08T10:26:52;97653.22;;;6.51;100.00
6094;BME280;19964;42.060;24.700;2024-03-08T10:29:20;97674.03;;;6.62;100.00
6094;BME280;19964;42.060;24.700;2024-03-08T10:31:47;97669.84;;;6.48;100.00
6094;BME280;19964;42.060;24.700;2024-03-08T10:34:15;97671.63;;;6.48;100.00
6094;BME280;19964;42.060;24.700;2024-03-08T10:36:44;97664.09;;;6.40;100.00
6094;BME280;19964;42.060;24.700;2024-03-08T10:39:19;97657.78;;;6.49;100.00
6094;BME280;19964;42.060;24.700;2024-03-08T10:41:52;97657.81;;;6.62;100.00
6094;BME280;19964;42.060;24.700;2024-03-08T10:44:31;97655.88;;;6.90;100.00
6094;BME280;19964;42.060;24.700;2024-03-08T10:47:13;97643.78;;;6.97;100.00
6094;BME280;19964;42.060;24.700;2024-03-08T10:49:54;97603.16;;;6.60;100.00
6094;BME280;19964;42.060;24.700;2024-03-08T10:52:23;97664.78;;;7.07;100.00
6094;BME280;19964;42.060;24.700;2024-03-08T10:54:52;97670.34;;;7.24;100.00
6094;BME280;19964;42.060;24.700;2024-03-08T10:57:20;97659.81;;;7.38;100.00
6094;BME280;19964;42.060;24.700;2024-03-08T10:59:49;97693.09;;;7.40;100.00
6094;BME280;19964;42.060;24.700;2024-03-08T11:02:19;97687.94;;;7.40;100.00
6094;BME280;19964;42.060;24.700;2024-03-08T11:04:46;97694.69;;;7.28;100.00
6094;BME280;19964;42.060;24.700;2024-03-08T11:07:14;97693.50;;;7.43;100.00
6094;BME280;19964;42.060;24.700;2024-03-08T11:09:47;97688.75;;;7.47;100.00
6094;BME280;19964;42.060;24.700;2024-03-08T11:12:22;97692.72;;;7.43;100.00
6094;BME280;19964;42.060;24.700;2024-03-08T11:14:53;97714.69;;;7.65;100.00
6094;BME280;19964;42.060;24.700;2024-03-08T11:17:21;97722.41;;;7.78;100.00
6094;BME280;19964;42.060;24.700;2024-03-08T11:19:55;97731.34;;;7.69;100.00
6094;BME280;19964;42.060;24.700;2024-03-08T11:22:23;97736.25;;;7.96;100.00
6094;BME280;19964;42.060;24.700;2024-03-08T11:24:54;97730.56;;;7.68;100.00
6094;BME280;19964;42.060;24.700;2024-03-08T11:27:29;97720.22;;;7.75;100.00
6094;BME280;19964;42.060;24.700;2024-03-08T11:30:00;97731.38;;;7.56;100.00
6094;BME280;19964;42.060;24.700;2024-03-08T11:32:37;97721.63;;;7.77;100.00
6094;BME280;19964;42.060;24.700;2024-03-08T11:35:06;97738.03;;;8.02;100.00
6094;BME280;19964;42.060;24.700;2024-03-08T11:37:34;97725.72;;;7.98;100.00
6094;BME280;19964;42.060;24.700;2024-03-08T11:40:11;97754.13;;;7.91;100.00
6094;BME280;19964;42.060;24.700;2024-03-08T11:42:44;97758.06;;;7.94;100.00
6094;BME280;19964;42.060;24.700;2024-03-08T11:45:13;97737.44;;;8.00;100.00
6094;BME280;19964;42.060;24.700;2024-03-08T11:47:42;97747.31;;;8.17;100.00
6094;BME280;19964;42.060;24.700;2024-03-08T11:50:11;97750.69;;;8.30;100.00
6094;BME280;19964;42.060;24.700;2024-03-08T11:52:39;97747.63;;;8.90;100.00
6094;BME280;19964;42.060;24.700;2024-03-08T11:55:08;97755.53;;;9.27;100.00
6094;BME280;19964;42.060;24.700;2024-03-08T11:57:36;97744.31;;;9.64;100.00
6094;BME280;19964;42.060;24.700;2024-03-08T12:00:04;97746.22;;;9.93;100.00
6094;BME280;19964;42.060;24.700;2024-03-08T12:02:33;97753.22;;;9.93;100.00
6094;BME280;19964;42.060;24.700;2024-03-08T12:05:04;97749.28;;;10.08;100.00
6094;BME280;19964;42.060;24.700;2024-03-08T12:07:35;97759.91;;;10.00;98.24
6094;BME280;19964;42.060;24.700;2024-03-08T12:10:20;97743.84;;;9.92;97.18
6094;BME280;19964;42.060;24.700;2024-03-08T12:12:49;97741.34;;;9.60;100.00
6094;BME280;19964;42.060;24.700;2024-03-08T12:15:17;97719.50;;;9.07;100.00
6094;BME280;19964;42.060;24.700;2024-03-08T12:17:45;97730.47;;;8.65;100.00
6094;BME280;19964;42.060;24.700;2024-03-08T12:20:15;97719.81;;;8.55;100.00
6094;BME280;19964;42.060;24.700;2024-03-08T12:22:43;97723.09;;;8.24;100.00
6094;BME280;19964;42.060;24.700;2024-03-08T12:25:11;97715.34;;;8.18;100.00
6094;BME280;19964;42.060;24.700;2024-03-08T12:27:41;97719.00;;;8.03;100.00
6094;BME280;19964;42.060;24.700;2024-03-08T12:30:19;97718.41;;;7.88;100.00
6094;BME280;19964;42.060;24.700;2024-03-08T12:32:48;97720.56;;;8.04;100.00
6094;BME280;19964;42.060;24.700;2024-03-08T12:35:17;97719.50;;;8.32;100.00
6094;BME280;19964;42.060;24.700;2024-03-08T12:37:44;97718.63;;;8.51;100.00
6094;BME280;19964;42.060;24.700;2024-03-08T12:40:11;97728.41;;;8.42;100.00
6094;BME280;19964;42.060;24.700;2024-03-08T12:42:43;97706.66;;;8.05;100.00
6094;BME280;19964;42.060;24.700;2024-03-08T12:45:13;97723.91;;;8.11;100.00
6094;BME280;19964;42.060;24.700;2024-03-08T12:47:41;97728.53;;;7.90;100.00
6094;BME280;19964;42.060;24.700;2024-03-08T12:50:10;97721.16;;;8.06;100.00
6094;BME280;19964;42.060;24.700;2024-03-08T12:52:37;97728.06;;;8.19;100.00
6094;BME280;19964;42.060;24.700;2024-03-08T12:55:04;97723.50;;;8.15;100.00
6094;BME280;19964;42.060;24.700;2024-03-08T12:57:35;97706.66;;;8.05;100.00
6094;BME280;19964;42.060;24.700;2024-03-08T13:00:05;97727.88;;;8.14;100.00
6094;BME280;19964;42.060;24.700;2024-03-08T13:02:39;97730.09;;;8.04;100.00
6094;BME280;19964;42.060;24.700;2024-03-08T13:05:06;97724.69;;;8.19;100.00
6094;BME280;19964;42.060;24.700;2024-03-08T13:07:35;97732.00;;;8.22;100.00